sensor_id;sensor_type;location;lat;lon;timestamp;P1;durP1;ratioP1;P2;durP2;ratioP2
39948;SDS011;29070;48.102;-1.652;2023-04-07T00:04:00;5.07;;;1.27;;
39948;SDS011;29070;48.102;-1.652;2023-04-07T00:09:00;8.20;;;1.60;;
39948;SDS011;29070;48.102;-1.652;2023-04-07T00:14:01;11.82;;;1.30;;
39948;SDS011;29070;48.102;-1.652;2023-04-07T00:19:01;17.23;;;1.50;;
39948;SDS011;29070;48.102;-1.652;2023-04-07T00:24:01;12.87;;;1.50;;
39948;SDS011;29070;48.102;-1.652;2023-04-07T00:29:02;4.43;;;1.53;;
39948;SDS011;29070;48.102;-1.652;2023-04-07T00:34:02;6.63;;;1.70;;
39948;SDS011;29070;48.102;-1.652;2023-04-07T00:39:02;13.90;;;1.70;;
39948;SDS011;29070;48.102;-1.652;2023-04-07T00:44:03;14.77;;;2.27;;
39948;SDS011;29070;48.102;-1.652;2023-04-07T00:49:03;9.32;;;1.90;;
39948;SDS011;29070;48.102;-1.652;2023-04-07T00:54:04;6.38;;;1.80;;
39948;SDS011;29070;48.102;-1.652;2023-04-07T00:59:05;6.55;;;1.30;;
39948;SDS011;29070;48.102;-1.652;2023-04-07T01:04:11;8.73;;;1.60;;
39948;SDS011;29070;48.102;-1.652;2023-04-07T01:09:22;10.75;;;1.60;;
39948;SDS011;29070;48.102;-1.652;2023-04-07T01:14:31;8.63;;;1.35;;
39948;SDS011;29070;48.102;-1.652;2023-04-07T01:19:46;11.93;;;1.75;;
39948;SDS011;29070;48.102;-1.652;2023-04-07T01:30:27;8.80;;;2.25;;
39948;SDS011;29070;48.102;-1.652;2023-04-07T01:35:31;9.18;;;2.17;;
39948;SDS011;29070;48.102;-1.652;2023-04-07T01:40:34;5.82;;;1.38;;
39948;SDS011;29070;48.102;-1.652;2023-04-07T01:45:36;12.05;;;1.92;;
39948;SDS011;29070;48.102;-1.652;2023-04-07T01:50:37;11.70;;;1.67;;
39948;SDS011;29070;48.102;-1.652;2023-04-07T01:55:38;10.13;;;1.73;;
39948;SDS011;29070;48.102;-1.652;2023-04-07T02:00:38;8.98;;;1.70;;
39948;SDS011;29070;48.102;-1.652;2023-04-07T02:05:40;8.90;;;1.95;;
39948;SDS011;29070;48.102;-1.652;2023-04-07T02:10:41;13.90;;;2.67;;
39948;SDS011;29070;48.102;-1.652;2023-04-07T02:15:45;5.72;;;1.65;;
39948;SDS011;29070;48.102;-1.652;2023-04-07T02:20:48;6.65;;;1.65;;
39948;SDS011;29070;48.102;-1.652;2023-04-07T02:25:51;4.70;;;1.35;;
39948;SDS011;29070;48.102;-1.652;2023-04-07T02:30:56;5.38;;;1.50;;
39948;SDS011;29070;48.102;-1.652;2023-04-07T02:35:57;8.00;;;2.00;;
39948;SDS011;29070;48.102;-1.652;2023-04-07T02:40:57;6.87;;;1.70;;
39948;SDS011;29070;48.102;-1.652;2023-04-07T02:45:58;7.78;;;1.80;;
39948;SDS011;29070;48.102;-1.652;2023-04-07T02:50:58;6.87;;;1.50;;
39948;SDS011;29070;48.102;-1.652;2023-04-07T02:55:59;8.93;;;1.63;;
39948;SDS011;29070;48.102;-1.652;2023-04-07T03:00:59;7.63;;;2.25;;
39948;SDS011;29070;48.102;-1.652;2023-04-07T03:06:00;6.93;;;3.57;;
39948;SDS011;29070;48.102;-1.652;2023-04-07T03:11:00;8.95;;;2.70;;
39948;SDS011;29070;48.102;-1.652;2023-04-07T03:16:00;4.97;;;3.05;;
39948;SDS011;29070;48.102;-1.652;2023-04-07T03:21:01;9.77;;;4.43;;
39948;SDS011;29070;48.102;-1.652;2023-04-07T03:26:02;9.55;;;3.38;;
39948;SDS011;29070;48.102;-1.652;2023-04-07T03:31:02;10.35;;;2.67;;
39948;SDS011;29070;48.102;-1.652;2023-04-07T03:36:02;10.20;;;2.73;;
39948;SDS011;29070;48.102;-1.652;2023-04-07T03:41:03;8.10;;;2.35;;
39948;SDS011;29070;48.102;-1.652;2023-04-07T03:46:03;9.17;;;2.67;;
39948;SDS011;29070;48.102;-1.652;2023-04-07T03:51:04;8.88;;;2.35;;
39948;SDS011;29070;48.102;-1.652;2023-04-07T03:56:04;8.48;;;2.20;;
39948;SDS011;29070;48.102;-1.652;2023-04-07T04:01:05;7.15;;;1.85;;
39948;SDS011;29070;48.102;-1.652;2023-04-07T04:06:05;7.80;;;1.97;;
39948;SDS011;29070;48.102;-1.652;2023-04-07T04:11:05;5.07;;;1.65;;
39948;SDS011;29070;48.102;-1.652;2023-04-07T04:16:06;4.67;;;1.80;;
39948;SDS011;29070;48.102;-1.652;2023-04-07T04:21:06;7.60;;;2.30;;
39948;SDS011;29070;48.102;-1.652;2023-04-07T04:26:07;7.22;;;2.15;;
39948;SDS011;29070;48.102;-1.652;2023-04-07T04:31:07;5.27;;;1.77;;
39948;SDS011;29070;48.102;-1.652;2023-04-07T04:36:08;10.82;;;2.53;;
39948;SDS011;29070;48.102;-1.652;2023-04-07T04:41:08;9.43;;;2.28;;
39948;SDS011;29070;48.102;-1.652;2023-04-07T04:46:08;4.77;;;2.20;;
39948;SDS011;29070;48.102;-1.652;2023-04-07T04:51:09;5.20;;;1.98;;
39948;SDS011;29070;48.102;-1.652;2023-04-07T04:56:09;4.20;;;2.03;;
39948;SDS011;29070;48.102;-1.652;2023-04-07T05:01:10;7.05;;;2.30;;
39948;SDS011;29070;48.102;-1.652;2023-04-07T05:06:11;6.78;;;2.03;;
39948;SDS011;29070;48.102;-1.652;2023-04-07T05:11:11;6.07;;;2.63;;
39948;SDS011;29070;48.102;-1.652;2023-04-07T05:16:12;6.18;;;2.63;;
39948;SDS011;29070;48.102;-1.652;2023-04-07T05:21:12;5.10;;;1.83;;
39948;SDS011;29070;48.102;-1.652;2023-04-07T05:26:13;5.83;;;2.60;;
39948;SDS011;29070;48.102;-1.652;2023-04-07T05:31:13;11.33;;;2.67;;
39948;SDS011;29070;48.102;-1.652;2023-04-07T05:36:13;10.07;;;2.83;;
39948;SDS011;29070;48.102;-1.652;2023-04-07T05:41:15;7.82;;;2.92;;
39948;SDS011;29070;48.102;-1.652;2023-04-07T05:46:15;18.25;;;3.53;;
39948;SDS011;29070;48.102;-1.652;2023-04-07T05:51:15;10.27;;;2.90;;
39948;SDS011;29070;48.102;-1.652;2023-04-07T05:56:16;20.93;;;4.47;;
39948;SDS011;29070;48.102;-1.652;2023-04-07T06:01:16;20.73;;;4.00;;
39948;SDS011;29070;48.102;-1.652;2023-04-07T06:06:17;61.73;;;8.50;;
39948;SDS011;29070;48.102;-1.652;2023-04-07T06:11:17;35.38;;;6.22;;
39948;SDS011;29070;48.102;-1.652;2023-04-07T06:16:17;66.93;;;7.70;;
39948;SDS011;29070;48.102;-1.652;2023-04-07T06:21:18;35.50;;;5.90;;
39948;SDS011;29070;48.102;-1.652;2023-04-07T06:26:18;52.57;;;8.20;;
39948;SDS011;29070;48.102;-1.652;2023-04-07T06:31:18;20.65;;;4.60;;
39948;SDS011;29070;48.102;-1.652;2023-04-07T06:36:19;32.00;;;6.03;;
39948;SDS011;29070;48.102;-1.652;2023-04-07T06:41:20;22.10;;;5.55;;
39948;SDS011;29070;48.102;-1.652;2023-04-07T06:46:21;17.57;;;4.73;;
39948;SDS011;29070;48.102;-1.652;2023-04-07T06:51:21;25.20;;;4.93;;
39948;SDS011;29070;48.102;-1.652;2023-04-07T06:56:21;31.97;;;5.90;;
39948;SDS011;29070;48.102;-1.652;2023-04-07T07:01:22;37.92;;;4.60;;
39948;SDS011;29070;48.102;-1.652;2023-04-07T07:06:23;21.67;;;5.70;;
39948;SDS011;29070;48.102;-1.652;2023-04-07T07:11:23;9.00;;;4.37;;
39948;SDS011;29070;48.102;-1.652;2023-04-07T07:16:23;25.35;;;5.10;;
39948;SDS011;29070;48.102;-1.652;2023-04-07T07:21:24;13.23;;;4.22;;
39948;SDS011;29070;48.102;-1.652;2023-04-07T07:26:25;10.98;;;4.15;;
39948;SDS011;29070;48.102;-1.652;2023-04-07T07:31:26;20.73;;;6.63;;
39948;SDS011;29070;48.102;-1.652;2023-04-07T07:36:26;15.50;;;5.17;;
39948;SDS011;29070;48.102;-1.652;2023-04-07T07:41:26;59.65;;;7.30;;
39948;SDS011;29070;48.102;-1.652;2023-04-07T07:46:27;10.10;;;3.97;;
39948;SDS011;29070;48.102;-1.652;2023-04-07T07:51:27;7.43;;;3.47;;
39948;SDS011;29070;48.102;-1.652;2023-04-07T07:56:28;8.00;;;2.97;;
39948;SDS011;29070;48.102;-1.652;2023-04-07T08:01:28;10.57;;;4.03;;
39948;SDS011;29070;48.102;-1.652;2023-04-07T08:06:28;9.70;;;4.13;;
39948;SDS011;29070;48.102;-1.652;2023-04-07T08:11:30;10.80;;;5.38;;
39948;SDS011;29070;48.102;-1.652;2023-04-07T08:16:30;14.27;;;5.27;;
39948;SDS011;29070;48.102;-1.652;2023-04-07T08:21:31;11.23;;;4.93;;
39948;SDS011;29070;48.102;-1.652;2023-04-07T08:26:31;11.20;;;4.18;;
39948;SDS011;29070;48.102;-1.652;2023-04-07T08:31:32;12.98;;;4.95;;
39948;SDS011;29070;48.102;-1.652;2023-04-07T08:36:32;8.23;;;4.03;;
39948;SDS011;29070;48.102;-1.652;2023-04-07T08:41:35;11.17;;;4.37;;
39948;SDS011;29070;48.102;-1.652;2023-04-07T08:46:37;10.60;;;5.20;;
39948;SDS011;29070;48.102;-1.652;2023-04-07T08:51:42;12.57;;;4.95;;
39948;SDS011;29070;48.102;-1.652;2023-04-07T08:56:47;10.98;;;5.00;;
39948;SDS011;29070;48.102;-1.652;2023-04-07T09:01:48;10.68;;;4.60;;
39948;SDS011;29070;48.102;-1.652;2023-04-07T09:06:50;15.95;;;6.55;;
39948;SDS011;29070;48.102;-1.652;2023-04-07T09:11:50;15.30;;;6.17;;
39948;SDS011;29070;48.102;-1.652;2023-04-07T09:16:53;13.88;;;6.88;;
39948;SDS011;29070;48.102;-1.652;2023-04-07T09:21:53;14.07;;;5.82;;
39948;SDS011;29070;48.102;-1.652;2023-04-07T09:27:13;11.33;;;5.03;;
39948;SDS011;29070;48.102;-1.652;2023-04-07T09:32:34;11.65;;;4.97;;
39948;SDS011;29070;48.102;-1.652;2023-04-07T09:37:37;9.75;;;4.55;;
39948;SDS011;29070;48.102;-1.652;2023-04-07T09:42:45;13.30;;;4.82;;
39948;SDS011;29070;48.102;-1.652;2023-04-07T09:47:45;11.75;;;4.50;;
39948;SDS011;29070;48.102;-1.652;2023-04-07T09:52:50;10.68;;;4.25;;
39948;SDS011;29070;48.102;-1.652;2023-04-07T09:57:52;6.50;;;2.97;;
39948;SDS011;29070;48.102;-1.652;2023-04-07T10:02:54;8.38;;;2.78;;
39948;SDS011;29070;48.102;-1.652;2023-04-07T10:07:55;8.20;;;2.85;;
39948;SDS011;29070;48.102;-1.652;2023-04-07T10:12:56;6.30;;;2.97;;
39948;SDS011;29070;48.102;-1.652;2023-04-07T10:17:57;4.38;;;2.20;;
39948;SDS011;29070;48.102;-1.652;2023-04-07T10:23:03;6.22;;;2.17;;
39948;SDS011;29070;48.102;-1.652;2023-04-07T10:28:12;4.43;;;2.00;;
39948;SDS011;29070;48.102;-1.652;2023-04-07T10:33:14;5.45;;;2.25;;
39948;SDS011;29070;48.102;-1.652;2023-04-07T10:38:16;3.35;;;2.03;;
39948;SDS011;29070;48.102;-1.652;2023-04-07T10:43:35;4.43;;;1.73;;
39948;SDS011;29070;48.102;-1.652;2023-04-07T10:48:36;4.10;;;2.00;;
39948;SDS011;29070;48.102;-1.652;2023-04-07T10:53:37;4.97;;;1.83;;
39948;SDS011;29070;48.102;-1.652;2023-04-07T10:59:13;6.15;;;1.77;;
39948;SDS011;29070;48.102;-1.652;2023-04-07T11:04:14;3.92;;;1.55;;
39948;SDS011;29070;48.102;-1.652;2023-04-07T11:09:18;2.80;;;1.30;;
39948;SDS011;29070;48.102;-1.652;2023-04-07T11:14:25;2.28;;;0.82;;
39948;SDS011;29070;48.102;-1.652;2023-04-07T11:19:27;3.30;;;0.68;;
39948;SDS011;29070;48.102;-1.652;2023-04-07T11:24:36;2.80;;;0.55;;
39948;SDS011;29070;48.102;-1.652;2023-04-07T11:29:36;1.20;;;0.60;;
39948;SDS011;29070;48.102;-1.652;2023-04-07T11:34:37;2.13;;;0.60;;
39948;SDS011;29070;48.102;-1.652;2023-04-07T11:39:38;2.50;;;0.60;;
39948;SDS011;29070;48.102;-1.652;2023-04-07T11:44:45;1.50;;;0.60;;
39948;SDS011;29070;48.102;-1.652;2023-04-07T11:49:45;0.80;;;0.43;;
39948;SDS011;29070;48.102;-1.652;2023-04-07T11:54:46;3.27;;;0.60;;
39948;SDS011;29070;48.102;-1.652;2023-04-07T11:59:46;2.90;;;0.95;;
39948;SDS011;29070;48.102;-1.652;2023-04-07T12:04:54;2.08;;;1.25;;
39948;SDS011;29070;48.102;-1.652;2023-04-07T12:09:56;1.60;;;0.77;;
39948;SDS011;29070;48.102;-1.652;2023-04-07T12:14:56;2.13;;;0.70;;
39948;SDS011;29070;48.102;-1.652;2023-04-07T12:19:57;3.07;;;0.97;;
39948;SDS011;29070;48.102;-1.652;2023-04-07T12:24:57;1.55;;;1.00;;
39948;SDS011;29070;48.102;-1.652;2023-04-07T12:29:57;3.50;;;1.33;;
39948;SDS011;29070;48.102;-1.652;2023-04-07T12:34:58;2.30;;;1.10;;
39948;SDS011;29070;48.102;-1.652;2023-04-07T12:39:58;4.83;;;1.50;;
39948;SDS011;29070;48.102;-1.652;2023-04-07T12:44:59;3.53;;;1.05;;
39948;SDS011;29070;48.102;-1.652;2023-04-07T12:49:59;5.17;;;1.47;;
39948;SDS011;29070;48.102;-1.652;2023-04-07T12:55:00;2.17;;;1.58;;
39948;SDS011;29070;48.102;-1.652;2023-04-07T13:00:01;5.27;;;1.20;;
39948;SDS011;29070;48.102;-1.652;2023-04-07T13:05:01;2.60;;;1.63;;
39948;SDS011;29070;48.102;-1.652;2023-04-07T13:10:02;7.25;;;2.90;;
39948;SDS011;29070;48.102;-1.652;2023-04-07T13:15:05;2.33;;;1.17;;
39948;SDS011;29070;48.102;-1.652;2023-04-07T13:20:06;5.70;;;1.23;;
39948;SDS011;29070;48.102;-1.652;2023-04-07T13:25:07;2.47;;;1.05;;
39948;SDS011;29070;48.102;-1.652;2023-04-07T13:30:08;2.90;;;1.48;;
39948;SDS011;29070;48.102;-1.652;2023-04-07T13:35:08;3.22;;;1.00;;
39948;SDS011;29070;48.102;-1.652;2023-04-07T13:40:09;2.73;;;1.00;;
39948;SDS011;29070;48.102;-1.652;2023-04-07T13:45:11;1.70;;;0.75;;
39948;SDS011;29070;48.102;-1.652;2023-04-07T13:50:11;1.27;;;0.70;;
39948;SDS011;29070;48.102;-1.652;2023-04-07T13:55:12;4.47;;;1.13;;
39948;SDS011;29070;48.102;-1.652;2023-04-07T14:00:12;3.17;;;0.70;;
39948;SDS011;29070;48.102;-1.652;2023-04-07T14:05:14;2.65;;;0.70;;
39948;SDS011;29070;48.102;-1.652;2023-04-07T14:10:14;2.15;;;0.68;;
39948;SDS011;29070;48.102;-1.652;2023-04-07T14:15:15;2.15;;;0.82;;
39948;SDS011;29070;48.102;-1.652;2023-04-07T14:20:15;2.87;;;0.90;;
39948;SDS011;29070;48.102;-1.652;2023-04-07T14:25:15;3.75;;;0.68;;
39948;SDS011;29070;48.102;-1.652;2023-04-07T14:30:16;3.57;;;0.63;;
39948;SDS011;29070;48.102;-1.652;2023-04-07T14:35:16;3.42;;;0.60;;
39948;SDS011;29070;48.102;-1.652;2023-04-07T14:40:17;4.00;;;0.60;;
39948;SDS011;29070;48.102;-1.652;2023-04-07T14:45:17;2.15;;;0.80;;
39948;SDS011;29070;48.102;-1.652;2023-04-07T14:50:19;4.95;;;1.15;;
39948;SDS011;29070;48.102;-1.652;2023-04-07T14:55:19;2.50;;;1.30;;
39948;SDS011;29070;48.102;-1.652;2023-04-07T15:00:20;1.27;;;0.77;;
39948;SDS011;29070;48.102;-1.652;2023-04-07T15:05:20;2.00;;;1.23;;
39948;SDS011;29070;48.102;-1.652;2023-04-07T15:10:25;2.95;;;0.73;;
39948;SDS011;29070;48.102;-1.652;2023-04-07T15:15:25;2.03;;;1.00;;
39948;SDS011;29070;48.102;-1.652;2023-04-07T15:20:26;1.23;;;0.65;;
39948;SDS011;29070;48.102;-1.652;2023-04-07T15:25:26;7.53;;;2.70;;
39948;SDS011;29070;48.102;-1.652;2023-04-07T15:30:27;12.55;;;3.55;;
39948;SDS011;29070;48.102;-1.652;2023-04-07T15:35:28;3.50;;;0.77;;
39948;SDS011;29070;48.102;-1.652;2023-04-07T15:40:28;1.90;;;0.80;;
39948;SDS011;29070;48.102;-1.652;2023-04-07T15:45:29;3.83;;;1.60;;
39948;SDS011;29070;48.102;-1.652;2023-04-07T15:50:29;2.35;;;0.63;;
39948;SDS011;29070;48.102;-1.652;2023-04-07T15:55:33;9.00;;;2.10;;
39948;SDS011;29070;48.102;-1.652;2023-04-07T16:00:35;3.85;;;0.93;;
39948;SDS011;29070;48.102;-1.652;2023-04-07T16:05:37;2.90;;;0.77;;
39948;SDS011;29070;48.102;-1.652;2023-04-07T16:10:38;2.55;;;0.90;;
39948;SDS011;29070;48.102;-1.652;2023-04-07T16:15:38;1.83;;;0.80;;
39948;SDS011;29070;48.102;-1.652;2023-04-07T16:20:38;2.13;;;0.80;;
39948;SDS011;29070;48.102;-1.652;2023-04-07T16:25:39;2.00;;;0.75;;
39948;SDS011;29070;48.102;-1.652;2023-04-07T16:30:39;4.30;;;0.90;;
39948;SDS011;29070;48.102;-1.652;2023-04-07T16:35:40;1.77;;;0.90;;
39948;SDS011;29070;48.102;-1.652;2023-04-07T16:40:42;2.80;;;0.57;;
39948;SDS011;29070;48.102;-1.652;2023-04-07T16:45:48;2.03;;;0.87;;
39948;SDS011;29070;48.102;-1.652;2023-04-07T16:50:50;1.67;;;0.70;;
39948;SDS011;29070;48.102;-1.652;2023-04-07T16:55:50;1.37;;;0.60;;
39948;SDS011;29070;48.102;-1.652;2023-04-07T17:00:50;3.13;;;0.63;;
39948;SDS011;29070;48.102;-1.652;2023-04-07T17:05:51;4.77;;;1.03;;
39948;SDS011;29070;48.102;-1.652;2023-04-07T17:10:51;2.43;;;0.80;;
39948;SDS011;29070;48.102;-1.652;2023-04-07T17:15:52;3.33;;;1.10;;
39948;SDS011;29070;48.102;-1.652;2023-04-07T17:20:54;2.17;;;1.13;;
39948;SDS011;29070;48.102;-1.652;2023-04-07T17:25:54;1.97;;;0.80;;
39948;SDS011;29070;48.102;-1.652;2023-04-07T17:30:54;5.80;;;0.80;;
39948;SDS011;29070;48.102;-1.652;2023-04-07T17:35:55;5.10;;;1.00;;
39948;SDS011;29070;48.102;-1.652;2023-04-07T17:40:58;4.70;;;1.10;;
39948;SDS011;29070;48.102;-1.652;2023-04-07T17:46:00;3.50;;;0.77;;
39948;SDS011;29070;48.102;-1.652;2023-04-07T17:51:02;1.88;;;0.80;;
39948;SDS011;29070;48.102;-1.652;2023-04-07T17:56:03;2.35;;;0.82;;
39948;SDS011;29070;48.102;-1.652;2023-04-07T18:01:06;1.80;;;0.90;;
39948;SDS011;29070;48.102;-1.652;2023-04-07T18:06:07;3.55;;;1.15;;
39948;SDS011;29070;48.102;-1.652;2023-04-07T18:11:09;3.58;;;1.15;;
39948;SDS011;29070;48.102;-1.652;2023-04-07T18:16:10;4.10;;;1.20;;
39948;SDS011;29070;48.102;-1.652;2023-04-07T18:21:15;3.03;;;1.13;;
39948;SDS011;29070;48.102;-1.652;2023-04-07T18:26:16;3.00;;;0.90;;
39948;SDS011;29070;48.102;-1.652;2023-04-07T18:31:16;3.33;;;1.20;;
39948;SDS011;29070;48.102;-1.652;2023-04-07T18:36:17;2.80;;;1.15;;
39948;SDS011;29070;48.102;-1.652;2023-04-07T18:41:18;4.73;;;1.40;;
39948;SDS011;29070;48.102;-1.652;2023-04-07T18:46:18;4.47;;;1.03;;
39948;SDS011;29070;48.102;-1.652;2023-04-07T18:51:18;5.33;;;1.20;;
39948;SDS011;29070;48.102;-1.652;2023-04-07T18:56:19;3.40;;;1.43;;
39948;SDS011;29070;48.102;-1.652;2023-04-07T19:01:24;5.72;;;1.48;;
39948;SDS011;29070;48.102;-1.652;2023-04-07T19:06:25;4.82;;;1.60;;
39948;SDS011;29070;48.102;-1.652;2023-04-07T19:11:26;4.32;;;1.15;;
39948;SDS011;29070;48.102;-1.652;2023-04-07T19:16:27;4.30;;;1.13;;
39948;SDS011;29070;48.102;-1.652;2023-04-07T19:21:27;6.65;;;1.40;;
39948;SDS011;29070;48.102;-1.652;2023-04-07T19:26:28;6.00;;;1.93;;
39948;SDS011;29070;48.102;-1.652;2023-04-07T19:31:29;10.15;;;1.83;;
39948;SDS011;29070;48.102;-1.652;2023-04-07T19:36:30;7.13;;;1.90;;
39948;SDS011;29070;48.102;-1.652;2023-04-07T19:41:31;3.00;;;1.38;;
39948;SDS011;29070;48.102;-1.652;2023-04-07T19:46:32;6.27;;;3.40;;
39948;SDS011;29070;48.102;-1.652;2023-04-07T19:51:32;4.13;;;1.45;;
39948;SDS011;29070;48.102;-1.652;2023-04-07T19:56:34;9.50;;;1.80;;
39948;SDS011;29070;48.102;-1.652;2023-04-07T20:01:34;3.87;;;1.70;;
39948;SDS011;29070;48.102;-1.652;2023-04-07T20:06:34;4.23;;;1.60;;
39948;SDS011;29070;48.102;-1.652;2023-04-07T20:11:37;4.07;;;1.33;;
39948;SDS011;29070;48.102;-1.652;2023-04-07T20:16:38;6.93;;;1.80;;
39948;SDS011;29070;48.102;-1.652;2023-04-07T20:21:38;5.27;;;1.97;;
39948;SDS011;29070;48.102;-1.652;2023-04-07T20:26:39;3.83;;;1.83;;
39948;SDS011;29070;48.102;-1.652;2023-04-07T20:31:39;6.27;;;1.77;;
39948;SDS011;29070;48.102;-1.652;2023-04-07T20:36:40;3.45;;;1.38;;
39948;SDS011;29070;48.102;-1.652;2023-04-07T20:41:40;6.53;;;1.80;;
39948;SDS011;29070;48.102;-1.652;2023-04-07T20:46:42;2.85;;;1.40;;
39948;SDS011;29070;48.102;-1.652;2023-04-07T20:51:45;6.07;;;1.48;;
39948;SDS011;29070;48.102;-1.652;2023-04-07T20:56:45;11.13;;;1.93;;
39948;SDS011;29070;48.102;-1.652;2023-04-07T21:01:45;3.72;;;1.80;;
39948;SDS011;29070;48.102;-1.652;2023-04-07T21:06:46;4.33;;;1.90;;
39948;SDS011;29070;48.102;-1.652;2023-04-07T21:11:46;5.33;;;1.63;;
39948;SDS011;29070;48.102;-1.652;2023-04-07T21:16:46;5.73;;;1.30;;
39948;SDS011;29070;48.102;-1.652;2023-04-07T21:21:47;10.33;;;1.90;;
39948;SDS011;29070;48.102;-1.652;2023-04-07T21:26:47;6.37;;;1.57;;
39948;SDS011;29070;48.102;-1.652;2023-04-07T21:31:48;5.30;;;1.70;;
39948;SDS011;29070;48.102;-1.652;2023-04-07T21:36:48;5.93;;;1.50;;
39948;SDS011;29070;48.102;-1.652;2023-04-07T21:41:48;3.00;;;1.57;;
39948;SDS011;29070;48.102;-1.652;2023-04-07T21:46:49;5.47;;;1.67;;
39948;SDS011;29070;48.102;-1.652;2023-04-07T21:51:49;8.50;;;1.80;;
39948;SDS011;29070;48.102;-1.652;2023-04-07T21:56:50;4.17;;;1.57;;
39948;SDS011;29070;48.102;-1.652;2023-04-07T22:01:51;3.67;;;1.85;;
39948;SDS011;29070;48.102;-1.652;2023-04-07T22:06:52;2.92;;;1.58;;
39948;SDS011;29070;48.102;-1.652;2023-04-07T22:11:53;7.32;;;1.55;;
39948;SDS011;29070;48.102;-1.652;2023-04-07T22:16:53;5.70;;;1.50;;
39948;SDS011;29070;48.102;-1.652;2023-04-07T22:21:54;5.22;;;1.65;;
39948;SDS011;29070;48.102;-1.652;2023-04-07T22:26:54;5.90;;;1.73;;
39948;SDS011;29070;48.102;-1.652;2023-04-07T22:31:54;9.20;;;2.00;;
39948;SDS011;29070;48.102;-1.652;2023-04-07T22:36:55;5.97;;;1.90;;
39948;SDS011;29070;48.102;-1.652;2023-04-07T22:41:55;3.27;;;1.80;;
39948;SDS011;29070;48.102;-1.652;2023-04-07T22:46:55;4.07;;;1.50;;
39948;SDS011;29070;48.102;-1.652;2023-04-07T22:51:56;9.57;;;2.08;;
39948;SDS011;29070;48.102;-1.652;2023-04-07T22:56:56;10.57;;;2.40;;
39948;SDS011;29070;48.102;-1.652;2023-04-07T23:01:57;5.67;;;2.50;;
39948;SDS011;29070;48.102;-1.652;2023-04-07T23:06:57;3.57;;;2.13;;
39948;SDS011;29070;48.102;-1.652;2023-04-07T23:11:57;7.57;;;2.27;;
39948;SDS011;29070;48.102;-1.652;2023-04-07T23:16:58;5.20;;;2.10;;
39948;SDS011;29070;48.102;-1.652;2023-04-07T23:21:58;4.93;;;2.27;;
39948;SDS011;29070;48.102;-1.652;2023-04-07T23:26:58;4.47;;;2.00;;
39948;SDS011;29070;48.102;-1.652;2023-04-07T23:31:59;5.43;;;2.20;;
39948;SDS011;29070;48.102;-1.652;2023-04-07T23:36:59;6.72;;;1.85;;
39948;SDS011;29070;48.102;-1.652;2023-04-07T23:42:00;5.05;;;2.13;;
39948;SDS011;29070;48.102;-1.652;2023-04-07T23:47:01;7.07;;;2.55;;
39948;SDS011;29070;48.102;-1.652;2023-04-07T23:52:01;5.33;;;2.30;;
39948;SDS011;29070;48.102;-1.652;2023-04-07T23:57:01;8.45;;;2.25;;
